Time;durP1;ratioP1;P1;durP2;ratioP2;P2;SDS_P1;SDS_P2;PMS_P1;PMS_P2;Temp;Humidity;BMP_temperature;BMP_pressure;BME280_temperature;BME280_humidity;BME280_pressure;Samples;Min_cycle;Max_cycle;Signal;HPM_P1;HPM_P2
2023/07/10 07:28:52;;;;;;;1.85;0.85;;;31.70;92.60;;;;;;4974606;23;20705;-72
2023/07/10 07:31:18;;;;;;;1.60;0.77;;;32.00;92.60;;;;;;4942766;28;20221;-72
2023/07/10 07:33:45;;;;;;;3.20;0.88;;;32.50;91.90;;;;;;4945366;28;20204;-71
2023/07/10 07:36:12;;;;;;;2.22;0.93;;;32.50;92.00;;;;;;4954699;28;20231;-71
2023/07/10 07:38:39;;;;;;;2.33;0.90;;;32.50;93.00;;;;;;4954706;28;20562;-73
2023/07/10 07:41:06;;;;;;;2.25;0.80;;;32.20;91.90;;;;;;4954975;28;20208;-72
2023/07/10 07:43:33;;;;;;;1.98;0.57;;;32.20;92.20;;;;;;4955197;28;20236;-73
2023/07/10 07:46:02;;;;;;;1.25;0.80;;;32.30;91.70;;;;;;4954776;28;20322;-72
2023/07/10 07:48:29;;;;;;;1.52;0.68;;;32.30;91.40;;;;;;4954600;28;20693;-72
2023/07/10 07:50:57;;;;;;;1.08;0.70;;;32.40;92.20;;;;;;4954888;28;20204;-72
2023/07/10 07:53:24;;;;;;;2.15;0.85;;;32.30;92.30;;;;;;4954821;28;20212;-73
2023/07/10 07:55:52;;;;;;;1.48;0.68;;;32.00;91.60;;;;;;4954947;28;20231;-72
2023/07/10 07:58:19;;;;;;;1.73;0.68;;;32.10;91.90;;;;;;4954924;28;20335;-72
2023/07/10 08:00:46;;;;;;;1.73;0.77;;;32.00;91.00;;;;;;4954691;28;20204;-72
2023/07/10 08:03:14;;;;;;;1.35;0.63;;;31.90;92.50;;;;;;4955039;28;20216;-72
2023/07/10 08:05:41;;;;;;;1.38;0.60;;;32.10;91.50;;;;;;4954629;28;20236;-70
2023/07/10 08:08:10;;;;;;;2.50;0.70;;;31.80;92.00;;;;;;4954874;28;20212;-71
2023/07/10 08:10:40;;;;;;;2.65;0.77;;;31.90;91.90;;;;;;4958240;28;20207;-70
2023/07/10 08:13:09;;;;;;;1.40;0.65;;;31.60;91.50;;;;;;4958707;28;20214;-70
2023/07/10 08:15:36;;;;;;;1.45;0.50;;;31.40;91.70;;;;;;4958423;28;20231;-70
2023/07/10 08:18:03;;;;;;;1.70;0.68;;;31.60;92.60;;;;;;4958572;28;20628;-70
2023/07/10 08:20:32;;;;;;;1.58;0.80;;;31.80;91.40;;;;;;4958610;28;20757;-70
2023/07/10 08:22:59;;;;;;;3.35;0.88;;;32.00;91.90;;;;;;4958341;28;20667;-70
2023/07/10 08:25:26;;;;;;;2.25;0.60;;;32.30;91.60;;;;;;4958190;28;20610;-72
2023/07/10 08:27:53;;;;;;;3.75;0.70;;;32.70;91.20;;;;;;4958280;28;20637;-69
2023/07/10 08:30:19;;;;;;;1.50;0.60;;;32.30;91.10;;;;;;4958161;28;20226;-70
2023/07/10 08:32:46;;;;;;;2.05;0.63;;;32.10;91.20;;;;;;4958152;28;20208;-70
2023/07/10 08:35:13;;;;;;;2.55;0.75;;;31.30;91.10;;;;;;4957727;28;20231;-70
2023/07/10 08:37:41;;;;;;;1.90;0.80;;;31.10;92.30;;;;;;4957827;28;20208;-72
2023/07/10 08:40:16;;;;;;;3.00;0.90;;;30.80;92.40;;;;;;4958017;28;20204;-70
2023/07/10 08:42:43;;;;;;;2.85;0.95;;;31.00;91.90;;;;;;4958081;28;20211;-71
2023/07/10 08:45:16;;;;;;;3.17;1.10;;;31.40;92.30;;;;;;4957471;28;20244;-72
2023/07/10 08:47:47;;;;;;;2.58;0.68;;;31.70;91.80;;;;;;4957659;28;20218;-70
2023/07/10 08:50:19;;;;;;;2.13;0.55;;;31.30;92.00;;;;;;4957578;28;20292;-70
2023/07/10 08:52:54;;;;;;;2.63;0.75;;;31.30;91.90;;;;;;4957449;28;20208;-70
2023/07/10 08:55:27;;;;;;;2.50;0.90;;;31.50;92.90;;;;;;4957812;28;20228;-70
2023/07/10 08:57:58;;;;;;;1.80;0.70;;;31.10;91.40;;;;;;4958206;28;20659;-70
2023/07/10 09:00:27;;;;;;;2.20;0.70;;;31.80;92.30;;;;;;4957877;28;20208;-70
2023/07/10 09:03:05;;;;;;;0.80;0.50;;;31.90;91.20;;;;;;4957798;28;20536;-69
2023/07/10 09:05:37;;;;;;;2.00;0.55;;;31.40;91.70;;;;;;4957616;28;20326;-69
2023/07/10 09:08:11;;;;;;;2.33;0.68;;;31.20;92.20;;;;;;4957795;28;20204;-70
2023/07/10 09:10:41;;;;;;;1.15;0.68;;;31.20;91.60;;;;;;4957960;28;20299;-70
2023/07/10 09:13:13;;;;;;;1.13;0.55;;;31.50;91.20;;;;;;4957756;28;20296;-69
2023/07/10 09:15:45;;;;;;;2.63;0.60;;;31.40;91.10;;;;;;4957055;28;20319;-70
2023/07/10 09:18:18;;;;;;;2.35;0.60;;;31.20;91.40;;;;;;4957525;28;20214;-70
2023/07/10 09:20:46;;;;;;;0.52;0.50;;;31.40;91.00;;;;;;4957490;28;20232;-70
2023/07/10 09:23:21;;;;;;;1.08;0.60;;;31.30;91.70;;;;;;4957857;28;20218;-69
2023/07/10 09:25:54;;;;;;;1.30;0.55;;;31.50;91.20;;;;;;4957586;28;20239;-69
2023/07/10 09:28:23;;;;;;;2.17;0.70;;;31.90;91.00;;;;;;4957322;28;20208;-69
2023/07/10 09:30:57;;;;;;;1.45;0.50;;;31.40;90.70;;;;;;4956884;28;20638;-69
2023/07/10 09:33:37;;;;;;;2.80;0.60;;;31.60;90.90;;;;;;4957372;28;20212;-68
2023/07/10 09:36:13;;;;;;;1.40;0.65;;;30.90;90.10;;;;;;4957093;28;20227;-68
2023/07/10 09:38:44;;;;;;;3.95;1.10;;;30.50;91.20;;;;;;4957074;28;20214;-67
2023/07/10 09:41:13;;;;;;;4.82;1.05;;;30.60;89.00;;;;;;4957178;28;20215;-68
2023/07/10 09:43:49;;;;;;;1.17;0.50;;;31.10;90.10;;;;;;4957192;28;20242;-68
2023/07/10 09:46:16;;;;;;;1.80;0.80;;;30.90;91.50;;;;;;4956742;28;20235;-68
2023/07/10 09:48:44;;;;;;;1.88;0.80;;;31.30;91.10;;;;;;4957051;28;20219;-68
2023/07/10 09:51:12;;;;;;;1.65;0.60;;;31.30;90.50;;;;;;4956777;28;20216;-68
2023/07/10 09:53:45;;;;;;;1.42;0.77;;;30.90;90.50;;;;;;4956630;28;20257;-68
2023/07/10 09:56:21;;;;;;;1.70;0.70;;;30.90;91.40;;;;;;4956753;28;20234;-68
2023/07/10 09:58:47;;;;;;;2.38;0.90;;;30.50;90.60;;;;;;4956927;28;20211;-68
2023/07/10 10:01:14;;;;;;;1.42;0.50;;;30.10;91.00;;;;;;4956595;28;20671;-68
2023/07/10 10:03:42;;;;;;;2.13;0.50;;;30.30;91.80;;;;;;4956631;28;20304;-68
2023/07/10 10:06:21;;;;;;;1.20;0.50;;;30.50;92.40;;;;;;4956401;28;20251;-67
2023/07/10 10:08:50;;;;;;;1.27;0.65;;;30.20;91.50;;;;;;4956927;28;20204;-67
2023/07/10 10:11:18;;;;;;;1.25;0.70;;;29.90;91.40;;;;;;4956399;28;20208;-69
2023/07/10 10:13:48;;;;;;;2.83;0.60;;;29.60;91.30;;;;;;4956351;28;20243;-68
2023/07/10 10:16:23;;;;;;;3.58;0.77;;;29.40;91.90;;;;;;4956446;28;20694;-70
2023/07/10 10:18:55;;;;;;;3.03;0.80;;;29.00;93.70;;;;;;4956249;28;20216;-70
2023/07/10 10:21:23;;;;;;;1.95;0.70;;;28.80;93.30;;;;;;4956242;28;20205;-70
2023/07/10 10:23:57;;;;;;;1.40;0.50;;;28.60;93.10;;;;;;4956383;28;20212;-72
2023/07/10 10:27:11;;;;;;;1.02;0.60;;;28.60;94.10;;;;;;4956171;28;20335;-70
2023/07/10 10:29:59;;;;;;;2.13;0.60;;;28.50;93.60;;;;;;4935265;28;20556;-70
2023/07/10 10:32:35;;;;;;;3.92;0.90;;;28.30;94.40;;;;;;4955653;28;20208;-68
2023/07/10 10:35:11;;;;;;;1.50;0.65;;;28.30;93.60;;;;;;4956115;28;20230;-68
2023/07/10 10:37:50;;;;;;;2.55;0.80;;;28.10;94.30;;;;;;4955299;28;20210;-68
2023/07/10 10:40:27;;;;;;;1.60;0.60;;;28.00;93.80;;;;;;4955680;28;20214;-68
2023/07/10 10:43:04;;;;;;;1.05;0.50;;;28.20;94.30;;;;;;4955694;28;20590;-68
2023/07/10 10:45:39;;;;;;;2.20;0.80;;;28.20;93.90;;;;;;4955528;28;20242;-70
2023/07/10 10:48:16;;;;;;;2.42;0.73;;;28.00;93.50;;;;;;4955921;28;20211;-68
2023/07/10 10:50:58;;;;;;;1.40;0.68;;;28.20;94.70;;;;;;4955723;28;20208;-68
2023/07/10 10:53:42;;;;;;;1.88;0.73;;;28.30;94.80;;;;;;4955379;28;20222;-68
2023/07/10 10:56:22;;;;;;;3.55;0.70;;;28.10;93.80;;;;;;4955025;28;20223;-68
2023/07/10 10:59:01;;;;;;;1.67;0.63;;;28.30;94.50;;;;;;4955315;28;20204;-70
2023/07/10 11:01:36;;;;;;;2.63;0.80;;;28.30;94.20;;;;;;4955347;28;20204;-70
2023/07/10 11:04:13;;;;;;;2.17;0.73;;;28.50;93.50;;;;;;4955306;28;20570;-68
2023/07/10 11:06:47;;;;;;;2.78;0.80;;;28.50;93.40;;;;;;4954943;28;20245;-68
2023/07/10 11:09:18;;;;;;;1.85;0.73;;;28.40;94.50;;;;;;4955326;28;20209;-70
2023/07/10 11:11:47;;;;;;;1.83;0.63;;;28.50;93.30;;;;;;4955303;28;20215;-68
2023/07/10 11:14:14;;;;;;;1.20;0.50;;;28.40;93.40;;;;;;4955306;28;20208;-70
2023/07/10 11:16:41;;;;;;;1.77;0.70;;;28.50;92.70;;;;;;4954786;28;20235;-70
2023/07/10 11:19:15;;;;;;;3.58;1.67;;;28.80;93.30;;;;;;4955211;28;20281;-69
2023/07/10 11:21:42;;;;;;;2.65;0.70;;;29.10;93.30;;;;;;4955261;28;20511;-69
2023/07/10 11:24:27;;;;;;;1.63;0.68;;;29.40;92.80;;;;;;4955104;28;20204;-70
2023/07/10 11:27:00;;;;;;;3.33;0.70;;;29.30;93.30;;;;;;4955061;28;20239;-70
2023/07/10 11:29:31;;;;;;;1.95;0.73;;;28.80;93.90;;;;;;4954710;28;20622;-70
2023/07/10 11:32:00;;;;;;;2.33;1.08;;;28.90;94.70;;;;;;4954893;28;20556;-70
2023/07/10 11:34:53;;;;;;;2.13;0.70;;;29.20;94.10;;;;;;4955037;28;20204;-70
2023/07/10 11:37:53;;;;;;;3.75;0.93;;;29.30;94.20;;;;;;4955132;28;20222;-70
2023/07/10 11:40:43;;;;;;;1.67;0.80;;;29.40;93.50;;;;;;4955388;28;20754;-70
2023/07/10 11:43:57;;;;;;;2.55;1.00;;;29.50;92.90;;;;;;4954344;28;20208;-70
2023/07/10 11:46:30;;;;;;;3.55;1.02;;;29.00;93.00;;;;;;4954422;28;20247;-69
2023/07/10 11:49:10;;;;;;;2.05;0.82;;;28.80;93.90;;;;;;4954898;28;20286;-67
2023/07/10 11:51:42;;;;;;;1.15;0.90;;;28.60;94.40;;;;;;4954769;28;20571;-69
2023/07/10 11:54:36;;;;;;;4.95;0.82;;;28.20;94.40;;;;;;4955138;28;20212;-73
2023/07/10 11:57:06;;;;;;;3.65;1.10;;;28.30;94.80;;;;;;4954998;28;20224;-70
2023/07/10 11:59:35;;;;;;;1.05;0.77;;;28.40;94.20;;;;;;4954689;28;20215;-69
2023/07/10 12:02:11;;;;;;;3.10;1.05;;;28.60;94.40;;;;;;4954471;28;20516;-70
2023/07/10 12:04:39;;;;;;;2.38;0.98;;;28.50;94.20;;;;;;4954416;28;20204;-70
2023/07/10 12:07:06;;;;;;;2.50;1.10;;;28.20;93.90;;;;;;4954333;28;20732;-70
2023/07/10 12:09:33;;;;;;;1.17;0.70;;;28.00;95.30;;;;;;4954841;28;20208;-71
2023/07/10 12:11:59;;;;;;;2.22;0.80;;;28.20;94.70;;;;;;4954963;28;20212;-70
2023/07/10 12:14:30;;;;;;;1.38;0.80;;;28.40;94.30;;;;;;4954818;28;20295;-70
2023/07/10 12:16:59;;;;;;;2.88;0.93;;;28.60;94.60;;;;;;4954648;28;20243;-69
2023/07/10 12:19:32;;;;;;;2.78;0.85;;;28.80;94.60;;;;;;4954629;28;20298;-71
2023/07/10 12:22:01;;;;;;;3.65;1.10;;;28.90;95.00;;;;;;4954761;28;20659;-71
2023/07/10 12:24:28;;;;;;;2.38;0.80;;;28.80;93.30;;;;;;4954319;28;20663;-70
2023/07/10 12:26:57;;;;;;;3.67;1.10;;;28.80;94.60;;;;;;4954521;28;20250;-70
2023/07/10 12:29:24;;;;;;;3.22;1.10;;;28.70;93.20;;;;;;4954193;28;20212;-69
2023/07/10 12:31:50;;;;;;;3.42;0.93;;;28.30;94.40;;;;;;4954243;28;20204;-69
2023/07/10 12:34:23;;;;;;;1.52;0.88;;;28.00;94.60;;;;;;4954456;28;20566;-70
2023/07/10 12:36:53;;;;;;;2.50;0.93;;;27.60;94.90;;;;;;4954889;28;20242;-70
2023/07/10 12:39:21;;;;;;;2.00;0.93;;;27.30;95.10;;;;;;4954618;28;20295;-70
2023/07/10 12:41:52;;;;;;;2.78;0.95;;;27.40;94.90;;;;;;4954235;28;20208;-71
2023/07/10 12:44:22;;;;;;;3.35;1.05;;;27.50;95.00;;;;;;4953927;28;20212;-70
2023/07/10 12:46:54;;;;;;;2.85;1.08;;;27.70;95.20;;;;;;4953951;28;20244;-70
2023/07/10 12:49:25;;;;;;;1.75;0.93;;;27.40;96.00;;;;;;4954500;28;20215;-70
2023/07/10 12:51:54;;;;;;;2.67;0.93;;;27.40;96.10;;;;;;4954026;28;20208;-71
2023/07/10 12:54:23;;;;;;;3.60;1.02;;;27.60;94.20;;;;;;4954156;28;20212;-70
2023/07/10 12:56:52;;;;;;;1.65;0.70;;;27.90;93.80;;;;;;4957624;28;20239;-69
2023/07/10 12:59:23;;;;;;;4.57;1.00;;;28.20;94.00;;;;;;4957544;28;20216;-70
2023/07/10 13:01:52;;;;;;;2.25;0.80;;;28.20;93.90;;;;;;4957912;28;20299;-70
2023/07/10 13:04:23;;;;;;;1.20;0.60;;;28.20;94.20;;;;;;4957742;28;20204;-69
2023/07/10 13:07:02;;;;;;;1.88;0.80;;;28.50;94.80;;;;;;4957303;28;20286;-70
2023/07/10 13:09:33;;;;;;;2.15;0.98;;;28.30;93.40;;;;;;4957563;28;20846;-70
2023/07/10 13:12:02;;;;;;;1.83;0.77;;;28.50;93.60;;;;;;4957457;28;20214;-69
2023/07/10 13:14:32;;;;;;;3.35;1.08;;;28.60;94.70;;;;;;4956231;28;20208;-68
2023/07/10 13:16:59;;;;;;;2.85;1.63;;;28.60;95.20;;;;;;4957689;28;20314;-68
2023/07/10 13:19:27;;;;;;;1.63;0.77;;;28.40;94.10;;;;;;4957488;28;20219;-68
2023/07/10 13:21:54;;;;;;;2.90;0.98;;;28.50;94.10;;;;;;4956621;28;20208;-69
2023/07/10 13:24:22;;;;;;;2.55;0.90;;;28.50;93.80;;;;;;4957233;28;20218;-68
2023/07/10 13:26:52;;;;;;;1.85;1.00;;;28.50;94.00;;;;;;4956912;28;20335;-68
2023/07/10 13:29:18;;;;;;;2.92;0.75;;;28.60;93.70;;;;;;4953441;28;20224;-71
2023/07/10 13:31:45;;;;;;;3.47;1.08;;;28.20;94.00;;;;;;4955527;29;20208;-70
2023/07/10 13:34:13;;;;;;;3.22;0.98;;;28.20;93.70;;;;;;4956927;28;20215;-71
2023/07/10 13:36:41;;;;;;;0.90;0.70;;;28.30;95.10;;;;;;4956512;28;20706;-70
2023/07/10 13:39:14;;;;;;;1.02;0.60;;;28.40;94.10;;;;;;4956641;28;20294;-70
2023/07/10 13:41:43;;;;;;;2.30;0.90;;;28.60;93.80;;;;;;4956893;28;20218;-70
2023/07/10 13:44:10;;;;;;;2.83;1.05;;;28.70;93.90;;;;;;4956439;28;20218;-70
2023/07/10 13:46:38;;;;;;;1.60;0.60;;;28.60;94.10;;;;;;4956119;28;20242;-69
2023/07/10 13:49:12;;;;;;;2.45;1.00;;;28.50;94.30;;;;;;4956122;28;20242;-71
2023/07/10 13:51:40;;;;;;;1.65;0.77;;;28.30;93.80;;;;;;4956650;28;20215;-69
2023/07/10 13:54:07;;;;;;;2.40;0.93;;;28.20;94.30;;;;;;4956629;28;20302;-70
2023/07/10 13:56:37;;;;;;;1.00;0.60;;;28.20;94.30;;;;;;4950538;28;20234;-68
2023/07/10 13:59:06;;;;;;;1.35;0.65;;;28.20;93.90;;;;;;4954080;28;20211;-69
2023/07/10 14:01:33;;;;;;;2.17;0.85;;;28.30;94.10;;;;;;4935656;29;20209;-69
2023/07/10 14:04:01;;;;;;;3.15;1.10;;;28.40;94.40;;;;;;4935317;29;20299;-70
2023/07/10 14:06:34;;;;;;;3.28;1.20;;;28.30;93.70;;;;;;4950794;28;20250;-69
2023/07/10 14:09:04;;;;;;;4.93;0.98;;;28.30;93.60;;;;;;4955054;28;20236;-68
2023/07/10 14:11:32;;;;;;;1.73;0.73;;;28.20;93.80;;;;;;4955864;28;20204;-68
2023/07/10 14:13:58;;;;;;;1.75;0.73;;;28.20;93.50;;;;;;4968591;28;20207;-69
2023/07/10 14:16:29;;;;;;;1.48;0.80;;;28.30;93.30;;;;;;4975440;28;20321;-68
2023/07/10 14:18:58;;;;;;;2.70;0.80;;;28.30;93.80;;;;;;4975335;28;20252;-66
2023/07/10 14:21:25;;;;;;;1.55;0.70;;;28.30;93.20;;;;;;4956239;28;20218;-68
2023/07/10 14:23:52;;;;;;;1.08;0.70;;;28.50;94.10;;;;;;4955251;28;20574;-70
2023/07/10 14:26:22;;;;;;;2.03;0.85;;;28.50;94.30;;;;;;4954700;28;20228;-70
2023/07/10 14:28:50;;;;;;;2.13;0.60;;;28.50;93.90;;;;;;4955686;28;20239;-70
2023/07/10 14:31:17;;;;;;;3.53;0.70;;;28.50;93.80;;;;;;4955351;28;20239;-71
2023/07/10 14:33:45;;;;;;;2.83;1.00;;;28.70;93.10;;;;;;4955411;28;20212;-71
2023/07/10 14:36:14;;;;;;;1.08;0.73;;;28.90;94.30;;;;;;4955104;28;20256;-71
2023/07/10 14:38:41;;;;;;;2.30;0.90;;;28.90;92.40;;;;;;4955149;28;20299;-72
2023/07/10 14:41:11;;;;;;;1.95;0.82;;;28.90;93.20;;;;;;4954976;28;20571;-72
2023/07/10 14:43:38;;;;;;;0.95;0.60;;;28.80;92.80;;;;;;4953372;29;20568;-72
2023/07/10 14:46:15;;;;;;;0.70;0.50;;;28.70;93.30;;;;;;4955005;28;20759;-71
2023/07/10 14:48:43;;;;;;;1.17;0.80;;;28.60;92.60;;;;;;4955708;28;20215;-72
2023/07/10 14:51:12;;;;;;;1.27;0.65;;;28.70;92.80;;;;;;4954471;28;20212;-71
2023/07/10 14:53:39;;;;;;;1.13;0.70;;;28.80;93.10;;;;;;4954345;28;20690;-70
2023/07/10 14:56:13;;;;;;;2.33;0.80;;;28.90;92.80;;;;;;4954492;28;20219;-74
2023/07/10 14:58:40;;;;;;;1.60;0.75;;;28.70;91.90;;;;;;4955277;28;20211;-73
2023/07/10 15:01:13;;;;;;;1.95;0.60;;;28.60;92.50;;;;;;4954684;28;20623;-71
2023/07/10 15:03:41;;;;;;;1.27;0.77;;;28.90;92.20;;;;;;4954986;28;20214;-72
2023/07/10 15:06:21;;;;;;;2.17;0.70;;;29.00;91.80;;;;;;4954308;28;20226;-70
2023/07/10 15:08:49;;;;;;;1.63;0.80;;;28.70;91.60;;;;;;4955116;28;20216;-71
2023/07/10 15:11:16;;;;;;;2.05;0.70;;;28.70;92.20;;;;;;4954223;28;20215;-73
2023/07/10 15:13:43;;;;;;;3.60;0.80;;;28.50;92.60;;;;;;4954375;28;20212;-72
2023/07/10 15:16:18;;;;;;;1.00;0.60;;;28.50;92.90;;;;;;4953920;28;20615;-73
2023/07/10 15:18:46;;;;;;;1.60;0.70;;;28.40;93.20;;;;;;4954074;28;20212;-71
2023/07/10 15:21:16;;;;;;;1.05;0.60;;;28.40;92.50;;;;;;4954684;28;20208;-72
2023/07/10 15:23:44;;;;;;;0.50;0.50;;;28.50;92.80;;;;;;4954949;28;20281;-72
2023/07/10 15:26:11;;;;;;;1.40;0.77;;;28.60;93.50;;;;;;4954306;28;20212;-72
2023/07/10 15:28:38;;;;;;;1.40;0.60;;;28.60;93.20;;;;;;4954449;28;20238;-71
2023/07/10 15:31:09;;;;;;;1.75;0.70;;;28.50;93.20;;;;;;4953817;28;20687;-70
2023/07/10 15:33:38;;;;;;;1.50;0.70;;;28.20;93.00;;;;;;4954835;28;20212;-73
2023/07/10 15:36:06;;;;;;;2.60;0.90;;;28.20;93.20;;;;;;4954818;28;20231;-72
2023/07/10 15:38:33;;;;;;;2.53;1.15;;;28.00;94.00;;;;;;4954666;28;20216;-74
2023/07/10 15:41:03;;;;;;;0.95;0.82;;;28.10;93.40;;;;;;4953896;28;20578;-73
2023/07/10 15:43:32;;;;;;;2.25;0.70;;;28.10;93.50;;;;;;4954682;28;20212;-73
2023/07/10 15:46:00;;;;;;;1.20;0.77;;;28.30;93.40;;;;;;4953891;28;20234;-71
2023/07/10 15:48:27;;;;;;;1.73;0.70;;;28.40;93.80;;;;;;4954077;28;20331;-71
2023/07/10 15:50:56;;;;;;;1.48;0.68;;;28.60;93.20;;;;;;4954209;28;20686;-72
2023/07/10 15:53:25;;;;;;;1.25;0.90;;;28.60;93.70;;;;;;4953645;29;20342;-71
2023/07/10 15:55:52;;;;;;;1.23;0.70;;;28.60;93.10;;;;;;4954197;28;20227;-70
2023/07/10 15:58:21;;;;;;;1.15;0.80;;;28.80;93.90;;;;;;4954403;28;20212;-71
2023/07/10 16:00:50;;;;;;;1.88;0.80;;;28.80;92.30;;;;;;4954499;28;20568;-70
2023/07/10 16:03:24;;;;;;;1.15;0.82;;;28.80;93.10;;;;;;4954194;28;20203;-70
2023/07/10 16:05:53;;;;;;;0.75;0.60;;;28.80;93.20;;;;;;4954342;28;20648;-70
2023/07/10 16:08:22;;;;;;;1.17;0.60;;;28.70;92.40;;;;;;4953348;28;20231;-70
2023/07/10 16:10:53;;;;;;;2.40;0.80;;;28.50;92.20;;;;;;4953084;28;20736;-69
2023/07/10 16:13:24;;;;;;;1.65;0.60;;;28.30;92.90;;;;;;4953104;28;20560;-68
2023/07/10 16:15:51;;;;;;;1.48;0.60;;;28.30;93.30;;;;;;4934953;29;20232;-69
2023/07/10 16:18:24;;;;;;;1.45;0.60;;;28.30;92.60;;;;;;4952190;29;20207;-69
2023/07/10 16:20:51;;;;;;;2.80;0.68;;;28.20;93.20;;;;;;4953471;28;20220;-69
2023/07/10 16:23:22;;;;;;;2.15;0.95;;;28.20;93.10;;;;;;4951876;28;20208;-72
2023/07/10 16:25:49;;;;;;;2.17;0.80;;;28.30;93.80;;;;;;4951123;28;20226;-72
2023/07/10 16:28:17;;;;;;;1.80;0.90;;;28.30;92.90;;;;;;4952646;28;20266;-71
2023/07/10 16:30:46;;;;;;;3.10;1.00;;;28.10;92.90;;;;;;4953762;28;20223;-70
2023/07/10 16:33:14;;;;;;;2.53;0.90;;;28.10;94.50;;;;;;4956508;28;20603;-71
2023/07/10 16:35:42;;;;;;;1.17;0.73;;;28.00;93.10;;;;;;4956456;28;20702;-71
2023/07/10 16:38:13;;;;;;;3.05;0.73;;;28.10;93.30;;;;;;4969702;28;20195;-71
2023/07/10 16:40:40;;;;;;;2.88;1.38;;;28.00;93.00;;;;;;4962502;28;20591;-71
2023/07/10 16:43:12;;;;;;;2.65;1.15;;;28.00;93.20;;;;;;4955716;28;20204;-69
2023/07/10 16:45:39;;;;;;;1.20;0.90;;;27.90;93.00;;;;;;4955034;28;20238;-70
2023/07/10 16:48:09;;;;;;;1.20;0.80;;;28.00;93.70;;;;;;4956162;28;20669;-69
2023/07/10 16:50:35;;;;;;;1.45;0.85;;;27.90;93.60;;;;;;4955731;28;20211;-71
2023/07/10 16:53:06;;;;;;;1.45;0.80;;;27.90;94.50;;;;;;4955703;28;20210;-68
2023/07/10 16:55:32;;;;;;;1.20;0.80;;;27.90;93.60;;;;;;4955759;28;20224;-70
2023/07/10 16:57:59;;;;;;;4.28;1.00;;;27.90;93.80;;;;;;4956130;28;20210;-71
2023/07/10 17:00:28;;;;;;;2.50;0.75;;;27.70;94.20;;;;;;4955533;28;20211;-69
2023/07/10 17:02:57;;;;;;;2.28;0.73;;;27.40;94.30;;;;;;4955476;28;20261;-67
2023/07/10 17:05:25;;;;;;;2.72;0.80;;;27.50;94.60;;;;;;4955598;28;20242;-71
2023/07/10 17:07:58;;;;;;;2.33;0.63;;;27.60;93.90;;;;;;4954845;28;20323;-73
2023/07/10 17:10:25;;;;;;;2.35;0.65;;;27.70;94.40;;;;;;4955625;28;20936;-70
2023/07/10 17:12:53;;;;;;;1.35;0.70;;;27.80;93.90;;;;;;4955830;28;20200;-68
2023/07/10 17:15:22;;;;;;;1.48;0.80;;;28.00;93.90;;;;;;4954708;28;20236;-71
2023/07/10 17:17:49;;;;;;;2.20;0.85;;;28.00;93.50;;;;;;4953180;28;20664;-68
2023/07/10 17:20:18;;;;;;;1.98;0.82;;;28.20;94.10;;;;;;4945342;28;20295;-70
2023/07/10 17:22:46;;;;;;;2.05;0.75;;;28.10;93.60;;;;;;4955671;28;20206;-70
2023/07/10 17:25:16;;;;;;;1.45;0.80;;;28.10;94.00;;;;;;4952026;28;20608;-74
2023/07/10 17:27:44;;;;;;;1.67;0.85;;;28.00;93.70;;;;;;4950239;28;20227;-73
2023/07/10 17:30:14;;;;;;;2.10;0.75;;;27.90;93.80;;;;;;4941188;29;20215;-75
2023/07/10 17:32:41;;;;;;;1.42;0.85;;;27.90;94.80;;;;;;4952056;29;20215;-76
2023/07/10 17:35:16;;;;;;;2.20;0.70;;;27.70;93.50;;;;;;4948046;28;20229;-77
2023/07/10 17:37:43;;;;;;;5.20;1.00;;;27.50;93.80;;;;;;4951220;29;20203;-73
2023/07/10 17:40:15;;;;;;;1.17;0.70;;;27.40;94.30;;;;;;4948470;28;20208;-74
2023/07/10 17:42:42;;;;;;;1.17;0.75;;;27.40;94.80;;;;;;4948732;28;20671;-67
2023/07/10 17:45:16;;;;;;;1.05;0.70;;;27.30;94.00;;;;;;4945177;28;20235;-67
2023/07/10 17:47:43;;;;;;;1.48;0.75;;;27.30;94.60;;;;;;4955110;28;20243;-67
2023/07/10 17:50:13;;;;;;;2.53;0.90;;;27.30;95.50;;;;;;4952127;28;20209;-69
2023/07/10 17:52:40;;;;;;;1.55;0.80;;;27.40;95.10;;;;;;4954201;28;20588;-67
2023/07/10 17:55:14;;;;;;;1.15;0.70;;;27.60;95.30;;;;;;4949949;28;20237;-67
2023/07/10 17:57:43;;;;;;;3.85;1.08;;;27.70;94.90;;;;;;4956073;28;20298;-68
2023/07/10 18:00:11;;;;;;;5.45;1.90;;;27.80;95.10;;;;;;4956175;28;20212;-73
2023/07/10 18:02:42;;;;;;;4.53;1.63;;;27.80;94.40;;;;;;4956546;28;20204;-72
2023/07/10 18:05:15;;;;;;;2.60;1.35;;;27.70;94.50;;;;;;4956318;28;20228;-67
2023/07/10 18:07:41;;;;;;;3.97;2.10;;;27.60;95.10;;;;;;4955832;28;20231;-67
2023/07/10 18:10:09;;;;;;;3.63;1.90;;;27.50;94.20;;;;;;4956100;28;20204;-68
2023/07/10 18:12:36;;;;;;;2.53;1.50;;;27.50;94.80;;;;;;4956100;28;20214;-68
2023/07/10 18:15:15;;;;;;;2.78;1.58;;;27.50;95.10;;;;;;4955635;28;20234;-68
2023/07/10 18:17:43;;;;;;;2.75;0.95;;;27.50;95.10;;;;;;4955481;28;20203;-69
2023/07/10 18:20:10;;;;;;;1.65;1.05;;;27.50;95.40;;;;;;4955168;28;20219;-68
2023/07/10 18:22:39;;;;;;;2.10;1.17;;;27.60;95.50;;;;;;4955415;28;20218;-68
2023/07/10 18:25:15;;;;;;;2.92;1.70;;;27.40;95.30;;;;;;4953875;28;20725;-72
2023/07/10 18:27:45;;;;;;;3.78;2.10;;;27.20;95.00;;;;;;4953990;28;20237;-70
2023/07/10 18:30:15;;;;;;;1.58;1.23;;;27.10;95.40;;;;;;4954213;28;20223;-69
2023/07/10 18:32:42;;;;;;;4.47;1.80;;;27.20;95.70;;;;;;4954592;28;20219;-70
2023/07/10 18:35:15;;;;;;;2.28;1.25;;;27.20;96.50;;;;;;4953967;28;20223;-69
2023/07/10 18:37:42;;;;;;;2.58;0.75;;;27.10;96.70;;;;;;4944249;28;20239;-69
2023/07/10 18:40:10;;;;;;;1.88;1.27;;;27.00;96.30;;;;;;4945609;28;20292;-70
2023/07/10 18:42:37;;;;;;;1.55;1.00;;;27.00;96.20;;;;;;4947057;29;20571;-69
2023/07/10 18:45:15;;;;;;;7.28;3.60;;;26.90;96.70;;;;;;4949085;28;20232;-69
2023/07/10 18:47:42;;;;;;;28.77;22.67;;;26.90;96.60;;;;;;4955300;28;20208;-69
2023/07/10 18:50:14;;;;;;;11.63;6.63;;;26.70;96.50;;;;;;4948820;28;20627;-69
2023/07/10 18:52:42;;;;;;;44.25;25.13;;;26.60;97.00;;;;;;4955265;28;20200;-72
2023/07/10 18:55:15;;;;;;;28.92;17.30;;;26.70;96.80;;;;;;4948940;28;20619;-69
2023/07/10 18:57:42;;;;;;;28.10;16.63;;;26.60;97.40;;;;;;4947311;29;20262;-69
2023/07/10 19:00:19;;;;;;;15.75;8.32;;;26.50;97.50;;;;;;4949091;28;20208;-69
2023/07/10 19:02:46;;;;;;;6.07;3.35;;;26.50;97.40;;;;;;4953010;28;20212;-69
2023/07/10 19:05:13;;;;;;;22.95;12.70;;;26.50;97.60;;;;;;4950688;28;20230;-69
2023/07/10 19:07:40;;;;;;;14.38;4.72;;;26.40;97.80;;;;;;4953162;28;20674;-69
2023/07/10 19:10:14;;;;;;;4.57;2.80;;;26.30;96.90;;;;;;4944372;29;20669;-69
2023/07/10 19:12:41;;;;;;;7.05;4.50;;;26.30;97.40;;;;;;4947817;29;20208;-69
2023/07/10 19:15:08;;;;;;;6.60;4.05;;;26.20;97.80;;;;;;4936265;29;20229;-70
2023/07/10 19:17:37;;;;;;;8.88;5.28;;;26.20;97.50;;;;;;4949315;29;20214;-70
2023/07/10 19:20:05;;;;;;;7.45;4.05;;;26.10;97.50;;;;;;4946179;29;20215;-69
2023/07/10 19:22:32;;;;;;;4.40;2.55;;;26.00;98.10;;;;;;4947394;28;20691;-70
2023/07/10 19:25:03;;;;;;;4.28;2.50;;;25.90;97.80;;;;;;4946700;28;20323;-69
2023/07/10 19:27:30;;;;;;;6.72;2.90;;;25.90;97.70;;;;;;4949079;28;20251;-70
2023/07/10 19:29:57;;;;;;;5.13;3.88;;;25.80;98.10;;;;;;4950240;28;20721;-70
2023/07/10 19:32:24;;;;;;;6.72;2.58;;;25.80;98.70;;;;;;4948829;28;20208;-70
2023/07/10 19:34:52;;;;;;;3.85;2.60;;;25.70;98.60;;;;;;4950485;28;20782;-69
2023/07/10 19:37:19;;;;;;;6.03;2.63;;;25.60;98.70;;;;;;4948054;28;20298;-69
2023/07/10 19:39:47;;;;;;;3.75;2.10;;;25.50;98.90;;;;;;4949691;29;20655;-70
2023/07/10 19:42:14;;;;;;;6.15;2.78;;;25.40;99.50;;;;;;4946581;28;20242;-69
2023/07/10 19:44:47;;;;;;;7.95;2.85;;;25.20;99.10;;;;;;4949182;29;20212;-70
2023/07/10 19:47:15;;;;;;;14.15;7.28;;;25.20;99.50;;;;;;4940535;29;20220;-69
2023/07/10 19:49:42;;;;;;;10.43;6.13;;;25.10;99.60;;;;;;4948504;29;20231;-70
2023/07/10 19:52:14;;;;;;;8.98;5.15;;;25.00;99.90;;;;;;4943821;29;20213;-69
2023/07/10 19:54:42;;;;;;;25.60;15.68;;;24.90;99.90;;;;;;4947625;29;20208;-70
2023/07/10 19:57:17;;;;;;;20.08;11.88;;;24.70;99.90;;;;;;4936728;29;20220;-70
2023/07/10 19:59:43;;;;;;;12.95;7.07;;;24.60;99.90;;;;;;4950225;29;20219;-69
2023/07/10 20:02:14;;;;;;;12.38;7.65;;;24.50;99.90;;;;;;4947787;29;20303;-69
2023/07/10 20:04:41;;;;;;;5.90;4.07;;;24.40;99.90;;;;;;4945908;29;20212;-69
2023/07/10 20:07:09;;;;;;;13.27;8.65;;;24.30;99.90;;;;;;4948049;29;20219;-69
2023/07/10 20:09:37;;;;;;;8.98;4.88;;;24.20;99.90;;;;;;4938586;29;20232;-69
2023/07/10 20:12:12;;;;;;;10.68;5.15;;;24.10;99.90;;;;;;4948452;29;20211;-69
2023/07/10 20:14:38;;;;;;;3.75;1.70;;;24.00;99.90;;;;;;4947255;28;20590;-69
2023/07/10 20:17:06;;;;;;;2.45;1.52;;;23.80;99.90;;;;;;4949529;29;20211;-69
2023/07/10 20:19:33;;;;;;;0.85;0.63;;;23.70;99.90;;;;;;4945903;28;20234;-70
2023/07/10 20:21:59;;;;;;;1.92;0.75;;;23.60;99.90;;;;;;4948930;29;20215;-69
2023/07/10 20:24:26;;;;;;;1.17;0.60;;;23.50;99.90;;;;;;4945420;29;20219;-69
2023/07/10 20:26:54;;;;;;;2.28;1.00;;;23.40;99.90;;;;;;4948254;29;20228;-69
2023/07/10 20:29:22;;;;;;;4.25;1.10;;;23.40;99.90;;;;;;4947947;29;20330;-74